sensor_id;sensor_type;location;lat;lon;timestamp;pressure;altitude;pressure_sealevel;temperature;humidity
72024;BME280;59889;50.700;5.440;2024-01-30T00:01:52;101113.35;;;20.82;33.54
72024;BME280;59889;50.700;5.440;2024-01-30T00:04:17;101111.16;;;20.62;33.48
72024;BME280;59889;50.700;5.440;2024-01-30T00:06:42;101111.95;;;20.87;33.45
72024;BME280;59889;50.700;5.440;2024-01-30T00:09:08;101113.67;;;20.76;33.60
72024;BME280;59889;50.700;5.440;2024-01-30T00:11:33;101111.74;;;20.52;33.59
72024;BME280;59889;50.700;5.440;2024-01-30T00:13:58;101112.30;;;20.51;33.62
72024;BME280;59889;50.700;5.440;2024-01-30T00:16:24;101111.61;;;20.65;33.45
72024;BME280;59889;50.700;5.440;2024-01-30T00:18:48;101111.06;;;20.51;33.57
72024;BME280;59889;50.700;5.440;2024-01-30T00:21:14;101111.77;;;20.62;33.48
72024;BME280;59889;50.700;5.440;2024-01-30T00:23:38;101109.71;;;20.60;33.51
72024;BME280;59889;50.700;5.440;2024-01-30T00:26:03;101107.41;;;20.66;33.44
72024;BME280;59889;50.700;5.440;2024-01-30T00:28:28;101105.96;;;20.64;33.44
72024;BME280;59889;50.700;5.440;2024-01-30T00:30:53;101105.64;;;20.62;33.48
72024;BME280;59889;50.700;5.440;2024-01-30T00:33:18;101104.14;;;20.62;33.47
72024;BME280;59889;50.700;5.440;2024-01-30T00:35:43;101106.19;;;20.77;33.58
72024;BME280;59889;50.700;5.440;2024-01-30T00:38:08;101106.96;;;20.65;33.44
72024;BME280;59889;50.700;5.440;2024-01-30T00:40:34;101104.93;;;20.59;33.51
72024;BME280;59889;50.700;5.440;2024-01-30T00:42:59;101105.88;;;20.55;33.57
72024;BME280;59889;50.700;5.440;2024-01-30T00:45:24;101105.07;;;20.80;33.56
72024;BME280;59889;50.700;5.440;2024-01-30T00:47:49;101101.75;;;20.81;33.53
72024;BME280;59889;50.700;5.440;2024-01-30T00:50:14;101101.77;;;20.77;33.57
72024;BME280;59889;50.700;5.440;2024-01-30T00:52:39;101099.98;;;20.79;33.56
72024;BME280;59889;50.700;5.440;2024-01-30T00:55:05;101103.75;;;20.82;33.51
72024;BME280;59889;50.700;5.440;2024-01-30T00:57:29;101102.47;;;20.57;33.52
72024;BME280;59889;50.700;5.440;2024-01-30T00:59:54;101100.71;;;20.87;33.45
72024;BME280;59889;50.700;5.440;2024-01-30T01:02:20;101099.27;;;20.71;33.37
72024;BME280;59889;50.700;5.440;2024-01-30T01:04:45;101100.92;;;20.61;33.48
72024;BME280;59889;50.700;5.440;2024-01-30T01:07:10;101100.21;;;20.67;33.39
72024;BME280;59889;50.700;5.440;2024-01-30T01:09:35;101096.38;;;20.61;33.48
72024;BME280;59889;50.700;5.440;2024-01-30T01:12:01;101095.75;;;20.61;33.46
72024;BME280;59889;50.700;5.440;2024-01-30T01:14:25;101096.81;;;20.97;33.36
72024;BME280;59889;50.700;5.440;2024-01-30T01:16:51;101090.95;;;20.82;33.51
72024;BME280;59889;50.700;5.440;2024-01-30T01:19:16;101090.15;;;20.56;33.52
72024;BME280;59889;50.700;5.440;2024-01-30T01:21:41;101090.65;;;20.59;33.49
72024;BME280;59889;50.700;5.440;2024-01-30T01:24:06;101088.84;;;20.56;33.54
72024;BME280;59889;50.700;5.440;2024-01-30T01:26:31;101089.24;;;20.58;33.51
72024;BME280;59889;50.700;5.440;2024-01-30T01:28:56;101085.77;;;20.50;33.59
72024;BME280;59889;50.700;5.440;2024-01-30T01:31:21;101083.24;;;20.62;33.44
72024;BME280;59889;50.700;5.440;2024-01-30T01:33:47;101081.45;;;20.58;33.51
72024;BME280;59889;50.700;5.440;2024-01-30T01:36:13;101081.67;;;20.57;33.52
72024;BME280;59889;50.700;5.440;2024-01-30T01:38:36;101079.73;;;20.54;33.55
72024;BME280;59889;50.700;5.440;2024-01-30T01:41:01;101079.49;;;20.62;33.47
72024;BME280;59889;50.700;5.440;2024-01-30T01:43:26;101078.00;;;20.86;33.44
72024;BME280;59889;50.700;5.440;2024-01-30T01:45:53;101075.19;;;20.55;33.52
72024;BME280;59889;50.700;5.440;2024-01-30T01:48:17;101074.11;;;20.58;33.50
72024;BME280;59889;50.700;5.440;2024-01-30T01:50:43;101078.34;;;20.64;33.42
72024;BME280;59889;50.700;5.440;2024-01-30T01:53:08;101072.34;;;20.52;33.55
72024;BME280;59889;50.700;5.440;2024-01-30T01:55:33;101073.29;;;20.90;33.66
72024;BME280;59889;50.700;5.440;2024-01-30T01:57:58;101068.80;;;20.48;33.62
72024;BME280;59889;50.700;5.440;2024-01-30T02:00:24;101069.01;;;20.70;33.59
72024;BME280;59889;50.700;5.440;2024-01-30T02:02:49;101065.02;;;20.70;33.63
72024;BME280;59889;50.700;5.440;2024-01-30T02:05:13;101064.85;;;20.43;33.64
72024;BME280;59889;50.700;5.440;2024-01-30T02:07:38;101063.80;;;20.69;33.63
72024;BME280;59889;50.700;5.440;2024-01-30T02:10:04;101064.40;;;20.78;33.53
72024;BME280;59889;50.700;5.440;2024-01-30T02:12:28;101061.87;;;20.49;33.59
72024;BME280;59889;50.700;5.440;2024-01-30T02:14:54;101061.29;;;20.74;33.57
72024;BME280;59889;50.700;5.440;2024-01-30T02:17:18;101059.16;;;20.43;33.64
72024;BME280;59889;50.700;5.440;2024-01-30T02:19:44;101060.19;;;20.49;33.56
72024;BME280;59889;50.700;5.440;2024-01-30T02:22:09;101059.98;;;20.84;33.44
72024;BME280;59889;50.700;5.440;2024-01-30T02:24:34;101056.51;;;20.55;33.51
72024;BME280;59889;50.700;5.440;2024-01-30T02:26:59;101055.25;;;20.76;33.54
72024;BME280;59889;50.700;5.440;2024-01-30T02:29:24;101058.90;;;21.00;33.54
72024;BME280;59889;50.700;5.440;2024-01-30T02:31:49;101056.47;;;20.77;33.52
72024;BME280;59889;50.700;5.440;2024-01-30T02:34:14;101054.57;;;20.55;33.49
72024;BME280;59889;50.700;5.440;2024-01-30T02:36:42;101055.33;;;20.53;33.51
72024;BME280;59889;50.700;5.440;2024-01-30T02:39:04;101052.20;;;20.45;33.63
72024;BME280;59889;50.700;5.440;2024-01-30T02:41:30;101049.90;;;20.61;33.42
72024;BME280;59889;50.700;5.440;2024-01-30T02:43:55;101050.13;;;21.07;33.45
72024;BME280;59889;50.700;5.440;2024-01-30T02:46:20;101049.62;;;20.72;33.58
72024;BME280;59889;50.700;5.440;2024-01-30T02:48:45;101052.99;;;21.03;33.51
72024;BME280;59889;50.700;5.440;2024-01-30T02:51:11;101051.43;;;20.74;33.55
72024;BME280;59889;50.700;5.440;2024-01-30T02:53:36;101049.19;;;20.42;33.63
72024;BME280;59889;50.700;5.440;2024-01-30T02:56:02;101050.77;;;21.02;33.51
72024;BME280;59889;50.700;5.440;2024-01-30T02:58:25;101047.64;;;20.77;33.51
72024;BME280;59889;50.700;5.440;2024-01-30T03:00:50;101044.28;;;20.78;33.50
72024;BME280;59889;50.700;5.440;2024-01-30T03:03:15;101041.76;;;20.44;33.63
72024;BME280;59889;50.700;5.440;2024-01-30T03:05:40;101043.02;;;20.71;33.61
72024;BME280;59889;50.700;5.440;2024-01-30T03:08:05;101044.17;;;20.50;33.56
72024;BME280;59889;50.700;5.440;2024-01-30T03:10:30;101041.90;;;20.79;33.50
72024;BME280;59889;50.700;5.440;2024-01-30T03:12:55;101043.34;;;20.75;33.50
72024;BME280;59889;50.700;5.440;2024-01-30T03:15:21;101044.73;;;20.46;33.62
72024;BME280;59889;50.700;5.440;2024-01-30T03:17:46;101045.73;;;20.43;33.65
72024;BME280;59889;50.700;5.440;2024-01-30T03:20:12;101048.32;;;20.70;33.62
72024;BME280;59889;50.700;5.440;2024-01-30T03:22:36;101052.73;;;20.48;33.58
72024;BME280;59889;50.700;5.440;2024-01-30T03:25:01;101054.58;;;20.45;33.61
72024;BME280;59889;50.700;5.440;2024-01-30T03:27:26;101054.76;;;20.56;33.52
72024;BME280;59889;50.700;5.440;2024-01-30T03:29:51;101054.42;;;20.92;33.65
72024;BME280;59889;50.700;5.440;2024-01-30T03:32:17;101052.18;;;20.73;33.55
72024;BME280;59889;50.700;5.440;2024-01-30T03:34:41;101051.24;;;20.50;33.56
72024;BME280;59889;50.700;5.440;2024-01-30T03:37:06;101052.14;;;20.44;33.62
72024;BME280;59889;50.700;5.440;2024-01-30T03:39:31;101049.92;;;20.72;33.61
72024;BME280;59889;50.700;5.440;2024-01-30T03:41:56;101049.14;;;20.50;33.58
72024;BME280;59889;50.700;5.440;2024-01-30T03:44:22;101043.47;;;20.49;33.55
72024;BME280;59889;50.700;5.440;2024-01-30T03:46:47;101042.35;;;20.56;33.46
72024;BME280;59889;50.700;5.440;2024-01-30T03:49:12;101044.01;;;20.47;33.61
72024;BME280;59889;50.700;5.440;2024-01-30T03:51:37;101041.14;;;20.75;33.54
72024;BME280;59889;50.700;5.440;2024-01-30T03:54:02;101038.93;;;20.44;33.62
72024;BME280;59889;50.700;5.440;2024-01-30T03:56:27;101033.81;;;20.77;33.50
72024;BME280;59889;50.700;5.440;2024-01-30T03:58:52;101031.45;;;20.72;33.59
72024;BME280;59889;50.700;5.440;2024-01-30T04:01:18;101030.33;;;20.45;33.58
72024;BME280;59889;50.700;5.440;2024-01-30T04:03:43;101022.62;;;20.52;33.53
72024;BME280;59889;50.700;5.440;2024-01-30T04:06:08;101024.34;;;20.45;33.62
72024;BME280;59889;50.700;5.440;2024-01-30T04:08:33;101024.48;;;20.41;33.66
72024;BME280;59889;50.700;5.440;2024-01-30T04:10:58;101021.58;;;20.51;33.57
72024;BME280;59889;50.700;5.440;2024-01-30T04:13:24;101024.97;;;20.46;33.58
72024;BME280;59889;50.700;5.440;2024-01-30T04:15:49;101023.39;;;20.46;33.64
72024;BME280;59889;50.700;5.440;2024-01-30T04:18:14;101020.85;;;20.36;33.70
72024;BME280;59889;50.700;5.440;2024-01-30T04:20:39;101021.40;;;20.41;33.65
72024;BME280;59889;50.700;5.440;2024-01-30T04:23:04;101014.84;;;20.61;33.69
72024;BME280;59889;50.700;5.440;2024-01-30T04:25:29;101017.26;;;20.35;33.70
72024;BME280;59889;50.700;5.440;2024-01-30T04:27:55;101019.27;;;20.45;33.61
72024;BME280;59889;50.700;5.440;2024-01-30T04:30:20;101026.63;;;20.85;33.70
72024;BME280;59889;50.700;5.440;2024-01-30T04:32:45;101027.03;;;20.67;33.65
72024;BME280;59889;50.700;5.440;2024-01-30T04:35:10;101028.01;;;20.63;33.66
72024;BME280;59889;50.700;5.440;2024-01-30T04:37:35;101026.35;;;20.57;33.76
72024;BME280;59889;50.700;5.440;2024-01-30T04:40:01;101022.84;;;20.63;33.63
72024;BME280;59889;50.700;5.440;2024-01-30T04:42:26;101019.77;;;20.69;33.57
72024;BME280;59889;50.700;5.440;2024-01-30T04:44:51;101021.53;;;20.45;34.34
72024;BME280;59889;50.700;5.440;2024-01-30T04:47:16;101022.12;;;20.36;34.69
72024;BME280;59889;50.700;5.440;2024-01-30T04:49:42;101023.08;;;20.51;34.67
72024;BME280;59889;50.700;5.440;2024-01-30T04:52:08;101026.68;;;20.82;34.38
72024;BME280;59889;50.700;5.440;2024-01-30T04:54:33;101023.48;;;20.31;34.29
72024;BME280;59889;50.700;5.440;2024-01-30T04:56:58;101019.09;;;20.56;34.11
72024;BME280;59889;50.700;5.440;2024-01-30T04:59:24;101020.35;;;20.21;34.32
72024;BME280;59889;50.700;5.440;2024-01-30T05:01:48;101021.20;;;20.55;34.45
72024;BME280;59889;50.700;5.440;2024-01-30T05:04:13;101018.02;;;20.49;34.62
72024;BME280;59889;50.700;5.440;2024-01-30T05:06:38;101012.42;;;20.52;34.76
72024;BME280;59889;50.700;5.440;2024-01-30T05:09:03;101008.72;;;20.54;34.79
72024;BME280;59889;50.700;5.440;2024-01-30T05:11:28;101010.27;;;20.34;34.74
72024;BME280;59889;50.700;5.440;2024-01-30T05:13:53;101002.63;;;20.55;34.93
72024;BME280;59889;50.700;5.440;2024-01-30T05:16:19;101005.29;;;20.32;35.00
72024;BME280;59889;50.700;5.440;2024-01-30T05:18:44;101007.72;;;20.72;35.12
72024;BME280;59889;50.700;5.440;2024-01-30T05:21:10;101005.45;;;20.50;35.21
72024;BME280;59889;50.700;5.440;2024-01-30T05:23:36;101008.90;;;20.22;35.23
72024;BME280;59889;50.700;5.440;2024-01-30T05:26:01;101014.39;;;20.47;35.31
72024;BME280;59889;50.700;5.440;2024-01-30T05:28:26;101011.28;;;20.21;35.22
72024;BME280;59889;50.700;5.440;2024-01-30T05:30:52;101009.76;;;20.73;34.82
72024;BME280;59889;50.700;5.440;2024-01-30T05:33:17;101012.70;;;20.10;34.85
72024;BME280;59889;50.700;5.440;2024-01-30T05:35:43;101011.52;;;20.63;34.77
72024;BME280;59889;50.700;5.440;2024-01-30T05:38:08;101009.32;;;20.28;34.91
72024;BME280;59889;50.700;5.440;2024-01-30T05:40:34;101012.31;;;20.26;34.93
72024;BME280;59889;50.700;5.440;2024-01-30T05:42:59;101007.16;;;20.37;34.78
72024;BME280;59889;50.700;5.440;2024-01-30T05:45:25;101009.61;;;20.38;34.73
72024;BME280;59889;50.700;5.440;2024-01-30T05:47:51;101011.08;;;20.58;34.73
72024;BME280;59889;50.700;5.440;2024-01-30T05:50:16;101011.46;;;20.23;34.79
72024;BME280;59889;50.700;5.440;2024-01-30T05:52:41;101012.65;;;20.51;34.73
72024;BME280;59889;50.700;5.440;2024-01-30T05:55:07;101014.40;;;20.36;34.69
72024;BME280;59889;50.700;5.440;2024-01-30T05:57:33;101017.18;;;20.59;34.74
72024;BME280;59889;50.700;5.440;2024-01-30T05:59:58;101011.46;;;20.45;34.87
72024;BME280;59889;50.700;5.440;2024-01-30T06:02:23;101011.64;;;20.52;34.78
72024;BME280;59889;50.700;5.440;2024-01-30T06:04:48;101012.39;;;20.23;34.83
72024;BME280;59889;50.700;5.440;2024-01-30T06:07:14;101010.46;;;20.50;34.77
72024;BME280;59889;50.700;5.440;2024-01-30T06:09:39;101012.68;;;20.47;34.79
72024;BME280;59889;50.700;5.440;2024-01-30T06:12:05;101016.23;;;20.23;34.77
72024;BME280;59889;50.700;5.440;2024-01-30T06:14:30;101016.83;;;20.18;34.81
72024;BME280;59889;50.700;5.440;2024-01-30T06:16:56;101014.03;;;20.48;34.73
72024;BME280;59889;50.700;5.440;2024-01-30T06:19:21;101011.69;;;20.50;34.70
72024;BME280;59889;50.700;5.440;2024-01-30T06:21:46;101008.85;;;20.48;34.70
72024;BME280;59889;50.700;5.440;2024-01-30T06:24:17;101009.61;;;20.20;34.71
72024;BME280;59889;50.700;5.440;2024-01-30T06:26:37;101005.62;;;20.25;34.65
72024;BME280;59889;50.700;5.440;2024-01-30T06:29:02;101008.53;;;20.50;34.62
72024;BME280;59889;50.700;5.440;2024-01-30T06:31:28;101013.25;;;20.40;34.73
72024;BME280;59889;50.700;5.440;2024-01-30T06:33:53;101018.35;;;20.45;34.68
72024;BME280;59889;50.700;5.440;2024-01-30T06:36:19;101016.89;;;20.39;34.73
72024;BME280;59889;50.700;5.440;2024-01-30T06:38:44;101011.64;;;20.21;34.64
72024;BME280;59889;50.700;5.440;2024-01-30T06:41:09;101011.50;;;20.50;34.55
72024;BME280;59889;50.700;5.440;2024-01-30T06:43:34;101008.64;;;20.47;34.57
72024;BME280;59889;50.700;5.440;2024-01-30T06:46:00;101011.86;;;20.49;34.55
72024;BME280;59889;50.700;5.440;2024-01-30T06:48:25;101007.78;;;20.18;34.61
72024;BME280;59889;50.700;5.440;2024-01-30T06:50:53;101005.65;;;20.29;34.47
72024;BME280;59889;50.700;5.440;2024-01-30T06:53:16;101008.58;;;20.25;34.52
72024;BME280;59889;50.700;5.440;2024-01-30T06:55:41;101013.38;;;20.23;34.54
72024;BME280;59889;50.700;5.440;2024-01-30T06:58:07;101012.91;;;20.44;34.55
72024;BME280;59889;50.700;5.440;2024-01-30T07:00:32;101021.21;;;20.26;34.48
72024;BME280;59889;50.700;5.440;2024-01-30T07:02:57;101021.85;;;20.16;34.59
72024;BME280;59889;50.700;5.440;2024-01-30T07:05:22;101023.30;;;20.25;34.48
72024;BME280;59889;50.700;5.440;2024-01-30T07:07:47;101026.52;;;20.49;34.45
72024;BME280;59889;50.700;5.440;2024-01-30T07:10:13;101022.73;;;20.46;34.48
72024;BME280;59889;50.700;5.440;2024-01-30T07:12:39;101020.74;;;20.20;34.50
72024;BME280;59889;50.700;5.440;2024-01-30T07:15:05;101013.16;;;20.42;34.52
72024;BME280;59889;50.700;5.440;2024-01-30T07:17:29;101022.85;;;20.49;34.43
72024;BME280;59889;50.700;5.440;2024-01-30T07:19:55;101033.86;;;19.99;34.45
72024;BME280;59889;50.700;5.440;2024-01-30T07:22:20;101032.49;;;20.16;34.52
72024;BME280;59889;50.700;5.440;2024-01-30T07:24:45;101038.19;;;20.19;34.49
72024;BME280;59889;50.700;5.440;2024-01-30T07:27:11;101042.02;;;20.48;34.41
72024;BME280;59889;50.700;5.440;2024-01-30T07:29:36;101042.22;;;20.32;34.59
72024;BME280;59889;50.700;5.440;2024-01-30T07:32:01;101047.93;;;20.46;34.44
72024;BME280;59889;50.700;5.440;2024-01-30T07:34:26;101046.68;;;20.31;34.60
72024;BME280;59889;50.700;5.440;2024-01-30T07:36:51;101048.59;;;20.36;34.53
72024;BME280;59889;50.700;5.440;2024-01-30T07:39:17;101046.36;;;20.37;34.50
72024;BME280;59889;50.700;5.440;2024-01-30T07:41:42;101049.98;;;20.37;34.50
72024;BME280;59889;50.700;5.440;2024-01-30T07:44:07;101057.77;;;20.38;34.48
72024;BME280;59889;50.700;5.440;2024-01-30T07:46:33;101063.33;;;20.19;34.41
72024;BME280;59889;50.700;5.440;2024-01-30T07:48:58;101069.28;;;20.37;34.48
72024;BME280;59889;50.700;5.440;2024-01-30T07:51:24;101080.38;;;20.14;34.47
72024;BME280;59889;50.700;5.440;2024-01-30T07:53:51;101085.45;;;20.39;34.46
72024;BME280;59889;50.700;5.440;2024-01-30T07:56:14;101088.15;;;20.20;34.38
72024;BME280;59889;50.700;5.440;2024-01-30T07:58:39;101095.13;;;20.38;34.45
72024;BME280;59889;50.700;5.440;2024-01-30T08:01:04;101095.70;;;20.44;34.37
72024;BME280;59889;50.700;5.440;2024-01-30T08:03:29;101094.74;;;20.41;34.38
72024;BME280;59889;50.700;5.440;2024-01-30T08:05:54;101103.13;;;20.37;34.43
72024;BME280;59889;50.700;5.440;2024-01-30T08:08:19;101100.59;;;20.18;34.37
72024;BME280;59889;50.700;5.440;2024-01-30T08:10:45;101112.41;;;20.19;34.35
72024;BME280;59889;50.700;5.440;2024-01-30T08:13:10;101115.52;;;20.21;34.33
72024;BME280;59889;50.700;5.440;2024-01-30T08:15:35;101124.58;;;20.42;34.35
72024;BME280;59889;50.700;5.440;2024-01-30T08:18:00;101125.53;;;20.16;34.39
72024;BME280;59889;50.700;5.440;2024-01-30T08:20:25;101128.95;;;20.37;34.40
72024;BME280;59889;50.700;5.440;2024-01-30T08:22:50;101131.84;;;20.09;34.48
72024;BME280;59889;50.700;5.440;2024-01-30T08:25:15;101131.88;;;20.10;34.44
72024;BME280;59889;50.700;5.440;2024-01-30T08:27:40;101136.14;;;20.19;34.34
72024;BME280;59889;50.700;5.440;2024-01-30T08:30:07;101139.66;;;20.48;34.28
72024;BME280;59889;50.700;5.440;2024-01-30T08:32:31;101140.53;;;20.31;34.48
72024;BME280;59889;50.700;5.440;2024-01-30T08:34:57;101139.90;;;20.08;34.45
72024;BME280;59889;50.700;5.440;2024-01-30T08:37:22;101141.24;;;20.11;34.44
72024;BME280;59889;50.700;5.440;2024-01-30T08:39:47;101141.45;;;20.38;34.38
72024;BME280;59889;50.700;5.440;2024-01-30T08:42:12;101144.40;;;20.63;34.37
72024;BME280;59889;50.700;5.440;2024-01-30T08:44:37;101143.23;;;20.35;34.41
72024;BME280;59889;50.700;5.440;2024-01-30T08:47:02;101146.08;;;20.29;34.47
72024;BME280;59889;50.700;5.440;2024-01-30T08:49:27;101153.75;;;20.30;34.46
72024;BME280;59889;50.700;5.440;2024-01-30T08:51:52;101159.52;;;20.31;34.44
72024;BME280;59889;50.700;5.440;2024-01-30T08:54:17;101161.13;;;20.34;34.42
72024;BME280;59889;50.700;5.440;2024-01-30T08:56:43;101163.94;;;20.36;34.39
72024;BME280;59889;50.700;5.440;2024-01-30T08:59:07;101173.19;;;20.34;34.40
72024;BME280;59889;50.700;5.440;2024-01-30T09:01:32;101175.69;;;20.35;34.39
72024;BME280;59889;50.700;5.440;2024-01-30T09:03:58;101179.82;;;20.62;34.37
72024;BME280;59889;50.700;5.440;2024-01-30T09:06:23;101181.70;;;20.38;34.35
72024;BME280;59889;50.700;5.440;2024-01-30T09:08:49;101188.63;;;20.46;34.26
72024;BME280;59889;50.700;5.440;2024-01-30T09:11:14;101187.15;;;20.12;34.38
72024;BME280;59889;50.700;5.440;2024-01-30T09:13:38;101188.81;;;20.32;34.42
72024;BME280;59889;50.700;5.440;2024-01-30T09:16:04;101191.48;;;20.08;34.41
72024;BME280;59889;50.700;5.440;2024-01-30T09:18:28;101197.06;;;20.28;34.46
72024;BME280;59889;50.700;5.440;2024-01-30T09:20:54;101201.97;;;20.35;34.38
72024;BME280;59889;50.700;5.440;2024-01-30T09:23:19;101201.54;;;20.37;34.34
72024;BME280;59889;50.700;5.440;2024-01-30T09:25:44;101200.28;;;20.16;34.30
72024;BME280;59889;50.700;5.440;2024-01-30T09:28:09;101199.71;;;20.16;34.31
72024;BME280;59889;50.700;5.440;2024-01-30T09:30:34;101199.87;;;20.37;34.34
72024;BME280;59889;50.700;5.440;2024-01-30T09:32:59;101201.57;;;20.30;34.41
72024;BME280;59889;50.700;5.440;2024-01-30T09:35:24;101203.87;;;20.32;34.38
72024;BME280;59889;50.700;5.440;2024-01-30T09:37:49;101202.80;;;20.39;34.30
72024;BME280;59889;50.700;5.440;2024-01-30T09:40:15;101198.26;;;20.11;34.35
72024;BME280;59889;50.700;5.440;2024-01-30T09:42:42;101195.69;;;20.14;34.31
72024;BME280;59889;50.700;5.440;2024-01-30T09:45:06;101195.57;;;20.36;34.32
72024;BME280;59889;50.700;5.440;2024-01-30T09:47:31;101194.16;;;20.34;34.35
72024;BME280;59889;50.700;5.440;2024-01-30T09:49:56;101191.67;;;20.32;34.37
72024;BME280;59889;50.700;5.440;2024-01-30T09:52:21;101192.11;;;20.34;34.34
72024;BME280;59889;50.700;5.440;2024-01-30T09:54:46;101196.97;;;19.82;34.38
72024;BME280;59889;50.700;5.440;2024-01-30T09:57:11;101193.92;;;20.36;34.31
72024;BME280;59889;50.700;5.440;2024-01-30T09:59:36;101195.69;;;20.27;34.39
72024;BME280;59889;50.700;5.440;2024-01-30T10:02:01;101198.91;;;20.21;34.47
72024;BME280;59889;50.700;5.440;2024-01-30T10:04:26;101204.50;;;20.24;34.44
72024;BME280;59889;50.700;5.440;2024-01-30T10:06:51;101202.94;;;20.01;34.44
72024;BME280;59889;50.700;5.440;2024-01-30T10:09:16;101202.44;;;20.29;34.37
72024;BME280;59889;50.700;5.440;2024-01-30T10:11:41;101207.48;;;20.00;34.44
72024;BME280;59889;50.700;5.440;2024-01-30T10:14:06;101211.10;;;20.34;34.32
72024;BME280;59889;50.700;5.440;2024-01-30T10:16:31;101213.81;;;20.31;34.37
72024;BME280;59889;50.700;5.440;2024-01-30T10:18:56;101217.46;;;20.29;34.38
72024;BME280;59889;50.700;5.440;2024-01-30T10:21:23;101219.82;;;20.01;34.43
72024;BME280;59889;50.700;5.440;2024-01-30T10:23:47;101215.27;;;20.22;34.44
72024;BME280;59889;50.700;5.440;2024-01-30T10:26:12;101202.19;;;20.16;34.52
72024;BME280;59889;50.700;5.440;2024-01-30T10:28:37;101205.61;;;20.19;34.46
72024;BME280;59889;50.700;5.440;2024-01-30T10:31:02;101216.95;;;20.14;34.52
72024;BME280;59889;50.700;5.440;2024-01-30T10:33:27;101222.63;;;20.28;34.38
72024;BME280;59889;50.700;5.440;2024-01-30T10:35:52;101226.32;;;19.74;34.45
72024;BME280;59889;50.700;5.440;2024-01-30T10:38:19;101227.17;;;20.25;34.41
72024;BME280;59889;50.700;5.440;2024-01-30T10:40:43;101222.46;;;20.30;34.35
72024;BME280;59889;50.700;5.440;2024-01-30T10:43:10;101218.94;;;20.23;34.41
72024;BME280;59889;50.700;5.440;2024-01-30T10:45:33;101223.54;;;20.27;34.38
72024;BME280;59889;50.700;5.440;2024-01-30T10:47:58;101216.05;;;20.16;34.47
72024;BME280;59889;50.700;5.440;2024-01-30T10:50:24;101216.41;;;20.17;34.45
72024;BME280;59889;50.700;5.440;2024-01-30T10:52:49;101221.50;;;20.45;34.42
72024;BME280;59889;50.700;5.440;2024-01-30T10:55:14;101223.26;;;20.19;34.47
72024;BME280;59889;50.700;5.440;2024-01-30T10:57:38;101227.30;;;20.02;34.37
72024;BME280;59889;50.700;5.440;2024-01-30T11:00:06;101220.48;;;20.03;34.36
72024;BME280;59889;50.700;5.440;2024-01-30T11:02:29;101222.94;;;19.99;34.41
72024;BME280;59889;50.700;5.440;2024-01-30T11:04:56;101222.42;;;20.24;34.37
72024;BME280;59889;50.700;5.440;2024-01-30T11:07:24;101218.49;;;20.27;34.36
72024;BME280;59889;50.700;5.440;2024-01-30T11:09:49;101221.15;;;20.27;34.34
72024;BME280;59889;50.700;5.440;2024-01-30T11:12:12;101218.24;;;20.19;34.42
72024;BME280;59889;50.700;5.440;2024-01-30T11:14:34;101218.42;;;19.79;34.34
72024;BME280;59889;50.700;5.440;2024-01-30T11:16:59;101213.09;;;20.02;34.35
72024;BME280;59889;50.700;5.440;2024-01-30T11:19:24;101211.04;;;20.27;34.36
72024;BME280;59889;50.700;5.440;2024-01-30T11:21:50;101208.74;;;20.01;34.42
72024;BME280;59889;50.700;5.440;2024-01-30T11:24:15;101204.84;;;20.46;34.60
72024;BME280;59889;50.700;5.440;2024-01-30T11:26:42;101210.19;;;20.31;34.53
72024;BME280;59889;50.700;5.440;2024-01-30T11:29:07;101206.45;;;20.00;34.63
72024;BME280;59889;50.700;5.440;2024-01-30T11:31:30;101209.57;;;20.13;34.77
72024;BME280;59889;50.700;5.440;2024-01-30T11:33:56;101210.72;;;20.26;34.63
72024;BME280;59889;50.700;5.440;2024-01-30T11:36:25;101217.00;;;20.27;34.60
72024;BME280;59889;50.700;5.440;2024-01-30T11:38:46;101218.67;;;19.96;34.64
72024;BME280;59889;50.700;5.440;2024-01-30T11:41:11;101220.84;;;20.33;34.52
72024;BME280;59889;50.700;5.440;2024-01-30T11:43:36;101220.90;;;20.36;34.49
72024;BME280;59889;50.700;5.440;2024-01-30T11:46:02;101220.33;;;20.22;34.69
72024;BME280;59889;50.700;5.440;2024-01-30T11:48:26;101215.79;;;19.92;34.79
72024;BME280;59889;50.700;5.440;2024-01-30T11:50:51;101216.60;;;20.25;34.71
72024;BME280;59889;50.700;5.440;2024-01-30T11:53:16;101213.07;;;20.40;34.79
72024;BME280;59889;50.700;5.440;2024-01-30T11:55:41;101212.41;;;19.94;34.76
72024;BME280;59889;50.700;5.440;2024-01-30T11:58:06;101210.22;;;19.94;34.75
72024;BME280;59889;50.700;5.440;2024-01-30T12:00:31;101208.89;;;20.19;34.74
72024;BME280;59889;50.700;5.440;2024-01-30T12:02:57;101205.05;;;20.17;34.74
72024;BME280;59889;50.700;5.440;2024-01-30T12:05:22;101206.31;;;20.06;34.85
72024;BME280;59889;50.700;5.440;2024-01-30T12:07:47;101208.03;;;20.15;34.74
72024;BME280;59889;50.700;5.440;2024-01-30T12:10:13;101209.73;;;19.91;34.74
72024;BME280;59889;50.700;5.440;2024-01-30T12:12:37;101210.70;;;20.19;34.67
72024;BME280;59889;50.700;5.440;2024-01-30T12:15:02;101206.81;;;20.14;34.72
72024;BME280;59889;50.700;5.440;2024-01-30T12:17:29;101204.81;;;19.88;34.72
72024;BME280;59889;50.700;5.440;2024-01-30T12:22:17;101201.38;;;20.13;34.69
72024;BME280;59889;50.700;5.440;2024-01-30T12:24:42;101205.65;;;20.19;34.62
72024;BME280;59889;50.700;5.440;2024-01-30T12:27:07;101206.98;;;20.15;34.66
72024;BME280;59889;50.700;5.440;2024-01-30T12:29:32;101209.88;;;20.08;34.73
72024;BME280;59889;50.700;5.440;2024-01-30T12:31:58;101209.93;;;19.86;34.71
72024;BME280;59889;50.700;5.440;2024-01-30T12:34:25;101208.45;;;20.05;34.75
72024;BME280;59889;50.700;5.440;2024-01-30T12:36:48;101206.60;;;20.07;34.72
72024;BME280;59889;50.700;5.440;2024-01-30T12:39:14;101206.39;;;20.14;34.62
72024;BME280;59889;50.700;5.440;2024-01-30T12:41:38;101209.52;;;19.89;34.63